sensor_id;sensor_type;location;lat;lon;timestamp;temperature;humidity
21646;DHT22;10984;45.712;4.800;2022-10-22T00:00:27;15.60;99.90
21646;DHT22;10984;45.712;4.800;2022-10-22T00:02:52;15.60;99.90
21646;DHT22;10984;45.712;4.800;2022-10-22T00:05:18;15.60;99.90
21646;DHT22;10984;45.712;4.800;2022-10-22T00:07:43;15.70;99.90
21646;DHT22;10984;45.712;4.800;2022-10-22T00:10:09;15.60;99.90
21646;DHT22;10984;45.712;4.800;2022-10-22T00:12:35;15.60;99.90
21646;DHT22;10984;45.712;4.800;2022-10-22T00:15:02;15.70;99.90
21646;DHT22;10984;45.712;4.800;2022-10-22T00:17:28;15.60;99.90
21646;DHT22;10984;45.712;4.800;2022-10-22T00:19:53;15.60;99.90
21646;DHT22;10984;45.712;4.800;2022-10-22T00:22:19;15.60;99.90
21646;DHT22;10984;45.712;4.800;2022-10-22T00:24:45;15.60;99.90
21646;DHT22;10984;45.712;4.800;2022-10-22T00:27:11;15.60;99.90
21646;DHT22;10984;45.712;4.800;2022-10-22T00:29:37;15.60;99.90
21646;DHT22;10984;45.712;4.800;2022-10-22T00:32:03;15.60;99.90
21646;DHT22;10984;45.712;4.800;2022-10-22T00:34:30;15.60;99.90
21646;DHT22;10984;45.712;4.800;2022-10-22T00:36:56;15.60;99.90
21646;DHT22;10984;45.712;4.800;2022-10-22T00:39:23;15.60;99.90
21646;DHT22;10984;45.712;4.800;2022-10-22T00:41:51;15.60;99.90
21646;DHT22;10984;45.712;4.800;2022-10-22T00:47:22;15.70;99.90
21646;DHT22;10984;45.712;4.800;2022-10-22T00:49:49;15.70;99.90
21646;DHT22;10984;45.712;4.800;2022-10-22T00:52:16;15.60;99.90
21646;DHT22;10984;45.712;4.800;2022-10-22T00:54:42;15.60;99.90
21646;DHT22;10984;45.712;4.800;2022-10-22T00:57:08;15.60;99.90
21646;DHT22;10984;45.712;4.800;2022-10-22T00:59:34;15.60;99.90
21646;DHT22;10984;45.712;4.800;2022-10-22T01:02:00;15.60;99.90
21646;DHT22;10984;45.712;4.800;2022-10-22T01:04:26;15.70;99.90
21646;DHT22;10984;45.712;4.800;2022-10-22T01:06:52;15.70;99.90
21646;DHT22;10984;45.712;4.800;2022-10-22T01:15:25;15.80;99.90
21646;DHT22;10984;45.712;4.800;2022-10-22T01:27:06;15.90;99.90
21646;DHT22;10984;45.712;4.800;2022-10-22T01:29:57;15.90;99.90
21646;DHT22;10984;45.712;4.800;2022-10-22T01:32:25;15.90;99.90
21646;DHT22;10984;45.712;4.800;2022-10-22T01:34:55;16.00;99.90
21646;DHT22;10984;45.712;4.800;2022-10-22T01:37:25;16.00;99.90
21646;DHT22;10984;45.712;4.800;2022-10-22T01:39:53;16.00;99.90
21646;DHT22;10984;45.712;4.800;2022-10-22T01:42:20;16.10;99.90
21646;DHT22;10984;45.712;4.800;2022-10-22T01:44:45;16.10;99.90
21646;DHT22;10984;45.712;4.800;2022-10-22T02:08:10;16.10;99.90
21646;DHT22;10984;45.712;4.800;2022-10-22T02:10:37;16.10;99.90
21646;DHT22;10984;45.712;4.800;2022-10-22T02:15:51;16.00;99.90
21646;DHT22;10984;45.712;4.800;2022-10-22T02:18:37;16.00;99.90
21646;DHT22;10984;45.712;4.800;2022-10-22T02:21:05;16.00;99.90
21646;DHT22;10984;45.712;4.800;2022-10-22T02:23:31;16.00;99.90
21646;DHT22;10984;45.712;4.800;2022-10-22T02:31:50;16.00;99.90
21646;DHT22;10984;45.712;4.800;2022-10-22T02:34:21;16.00;99.90
21646;DHT22;10984;45.712;4.800;2022-10-22T02:36:49;15.90;99.90
21646;DHT22;10984;45.712;4.800;2022-10-22T02:39:17;15.90;99.90
21646;DHT22;10984;45.712;4.800;2022-10-22T02:41:43;15.90;99.90
21646;DHT22;10984;45.712;4.800;2022-10-22T02:44:09;15.90;99.90
21646;DHT22;10984;45.712;4.800;2022-10-22T02:46:37;15.90;99.90
21646;DHT22;10984;45.712;4.800;2022-10-22T02:49:03;15.90;99.90
21646;DHT22;10984;45.712;4.800;2022-10-22T02:51:29;15.90;99.90
21646;DHT22;10984;45.712;4.800;2022-10-22T02:53:54;15.90;99.90
21646;DHT22;10984;45.712;4.800;2022-10-22T02:56:20;15.80;99.90
21646;DHT22;10984;45.712;4.800;2022-10-22T02:58:46;15.80;99.90
21646;DHT22;10984;45.712;4.800;2022-10-22T03:01:11;15.80;99.90
21646;DHT22;10984;45.712;4.800;2022-10-22T03:03:37;15.80;99.90
21646;DHT22;10984;45.712;4.800;2022-10-22T03:06:03;15.80;99.90
21646;DHT22;10984;45.712;4.800;2022-10-22T03:08:28;15.80;99.90
21646;DHT22;10984;45.712;4.800;2022-10-22T03:10:54;15.70;99.90
21646;DHT22;10984;45.712;4.800;2022-10-22T03:13:20;15.70;99.90
21646;DHT22;10984;45.712;4.800;2022-10-22T03:15:48;15.70;99.90
21646;DHT22;10984;45.712;4.800;2022-10-22T03:18:14;15.70;99.90
21646;DHT22;10984;45.712;4.800;2022-10-22T03:20:39;15.70;99.90
21646;DHT22;10984;45.712;4.800;2022-10-22T03:23:05;15.70;99.90
21646;DHT22;10984;45.712;4.800;2022-10-22T03:25:31;15.60;99.90
21646;DHT22;10984;45.712;4.800;2022-10-22T03:28:02;15.60;99.90
21646;DHT22;10984;45.712;4.800;2022-10-22T03:30:30;15.60;99.90
21646;DHT22;10984;45.712;4.800;2022-10-22T03:32:56;15.60;99.90
21646;DHT22;10984;45.712;4.800;2022-10-22T03:35:22;15.60;99.90
21646;DHT22;10984;45.712;4.800;2022-10-22T03:37:47;15.60;99.90
21646;DHT22;10984;45.712;4.800;2022-10-22T03:40:13;15.60;99.90
21646;DHT22;10984;45.712;4.800;2022-10-22T03:42:40;15.60;99.90
21646;DHT22;10984;45.712;4.800;2022-10-22T03:45:07;15.60;99.90
21646;DHT22;10984;45.712;4.800;2022-10-22T03:47:33;15.60;99.90
21646;DHT22;10984;45.712;4.800;2022-10-22T03:49:59;15.50;99.90
21646;DHT22;10984;45.712;4.800;2022-10-22T03:52:24;15.60;99.90
21646;DHT22;10984;45.712;4.800;2022-10-22T03:54:50;15.60;99.90
21646;DHT22;10984;45.712;4.800;2022-10-22T03:57:16;15.50;99.90
21646;DHT22;10984;45.712;4.800;2022-10-22T03:59:43;15.40;99.90
21646;DHT22;10984;45.712;4.800;2022-10-22T04:02:10;15.40;99.90
21646;DHT22;10984;45.712;4.800;2022-10-22T04:04:36;15.30;99.90
21646;DHT22;10984;45.712;4.800;2022-10-22T04:07:03;15.30;99.90
21646;DHT22;10984;45.712;4.800;2022-10-22T04:09:47;15.20;99.90
21646;DHT22;10984;45.712;4.800;2022-10-22T04:12:13;15.20;99.90
21646;DHT22;10984;45.712;4.800;2022-10-22T04:14:38;15.10;99.90
21646;DHT22;10984;45.712;4.800;2022-10-22T04:17:04;15.10;99.90
21646;DHT22;10984;45.712;4.800;2022-10-22T04:19:30;15.00;99.90
21646;DHT22;10984;45.712;4.800;2022-10-22T04:22:14;15.00;99.90
21646;DHT22;10984;45.712;4.800;2022-10-22T04:24:39;14.90;99.90
21646;DHT22;10984;45.712;4.800;2022-10-22T04:27:05;14.90;99.90
21646;DHT22;10984;45.712;4.800;2022-10-22T04:29:31;14.80;99.90
21646;DHT22;10984;45.712;4.800;2022-10-22T04:31:56;14.80;99.90
21646;DHT22;10984;45.712;4.800;2022-10-22T04:34:22;14.80;99.90
21646;DHT22;10984;45.712;4.800;2022-10-22T04:36:50;14.70;99.90
21646;DHT22;10984;45.712;4.800;2022-10-22T04:39:16;14.70;99.90
21646;DHT22;10984;45.712;4.800;2022-10-22T04:41:42;14.60;99.90
21646;DHT22;10984;45.712;4.800;2022-10-22T04:44:07;14.60;99.90
21646;DHT22;10984;45.712;4.800;2022-10-22T04:46:34;14.60;99.90
21646;DHT22;10984;45.712;4.800;2022-10-22T04:48:59;14.60;99.90
21646;DHT22;10984;45.712;4.800;2022-10-22T04:51:26;14.60;99.90
21646;DHT22;10984;45.712;4.800;2022-10-22T04:53:52;14.50;99.90
21646;DHT22;10984;45.712;4.800;2022-10-22T04:56:21;14.50;99.90
21646;DHT22;10984;45.712;4.800;2022-10-22T04:58:55;14.50;99.90
21646;DHT22;10984;45.712;4.800;2022-10-22T05:01:27;14.50;99.90
21646;DHT22;10984;45.712;4.800;2022-10-22T05:03:54;14.50;99.90
21646;DHT22;10984;45.712;4.800;2022-10-22T05:06:21;14.50;99.90
21646;DHT22;10984;45.712;4.800;2022-10-22T05:08:50;14.50;99.90
21646;DHT22;10984;45.712;4.800;2022-10-22T05:14:04;14.50;99.90
21646;DHT22;10984;45.712;4.800;2022-10-22T05:16:31;14.50;99.90
21646;DHT22;10984;45.712;4.800;2022-10-22T05:18:58;14.40;99.90
21646;DHT22;10984;45.712;4.800;2022-10-22T05:21:25;14.30;99.90
21646;DHT22;10984;45.712;4.800;2022-10-22T05:23:52;14.30;99.90
21646;DHT22;10984;45.712;4.800;2022-10-22T05:26:20;14.20;99.90
21646;DHT22;10984;45.712;4.800;2022-10-22T05:28:47;14.20;99.90
21646;DHT22;10984;45.712;4.800;2022-10-22T05:31:14;14.30;99.90
21646;DHT22;10984;45.712;4.800;2022-10-22T05:33:41;14.20;99.90
21646;DHT22;10984;45.712;4.800;2022-10-22T05:36:09;14.20;99.90
21646;DHT22;10984;45.712;4.800;2022-10-22T05:38:36;14.20;99.90
21646;DHT22;10984;45.712;4.800;2022-10-22T05:41:21;14.20;99.90
21646;DHT22;10984;45.712;4.800;2022-10-22T05:43:48;14.20;99.90
21646;DHT22;10984;45.712;4.800;2022-10-22T05:46:17;14.20;99.90
21646;DHT22;10984;45.712;4.800;2022-10-22T05:48:42;14.20;99.90
21646;DHT22;10984;45.712;4.800;2022-10-22T05:51:28;14.20;99.90
21646;DHT22;10984;45.712;4.800;2022-10-22T05:53:56;14.20;99.90
21646;DHT22;10984;45.712;4.800;2022-10-22T05:56:23;14.20;99.90
21646;DHT22;10984;45.712;4.800;2022-10-22T05:58:49;14.20;99.90
21646;DHT22;10984;45.712;4.800;2022-10-22T06:01:19;14.10;99.90
21646;DHT22;10984;45.712;4.800;2022-10-22T06:03:46;14.10;99.90
21646;DHT22;10984;45.712;4.800;2022-10-22T06:06:32;14.10;99.90
21646;DHT22;10984;45.712;4.800;2022-10-22T06:11:43;14.10;99.90
21646;DHT22;10984;45.712;4.800;2022-10-22T06:14:09;14.00;99.90
21646;DHT22;10984;45.712;4.800;2022-10-22T06:16:36;14.00;99.90
21646;DHT22;10984;45.712;4.800;2022-10-22T06:19:02;14.00;99.90
21646;DHT22;10984;45.712;4.800;2022-10-22T06:21:28;14.00;99.90
21646;DHT22;10984;45.712;4.800;2022-10-22T06:24:13;14.00;99.90
21646;DHT22;10984;45.712;4.800;2022-10-22T06:26:39;14.00;99.90
21646;DHT22;10984;45.712;4.800;2022-10-22T06:29:06;14.00;99.90
21646;DHT22;10984;45.712;4.800;2022-10-22T06:31:32;14.00;99.90
21646;DHT22;10984;45.712;4.800;2022-10-22T06:34:03;14.00;99.90
21646;DHT22;10984;45.712;4.800;2022-10-22T06:36:29;14.00;99.90
21646;DHT22;10984;45.712;4.800;2022-10-22T06:38:55;14.00;99.90
21646;DHT22;10984;45.712;4.800;2022-10-22T06:41:21;14.10;99.90
21646;DHT22;10984;45.712;4.800;2022-10-22T06:43:47;14.10;99.90
21646;DHT22;10984;45.712;4.800;2022-10-22T06:46:15;14.20;99.90
21646;DHT22;10984;45.712;4.800;2022-10-22T06:48:47;14.20;99.90
21646;DHT22;10984;45.712;4.800;2022-10-22T06:51:13;14.20;99.90
21646;DHT22;10984;45.712;4.800;2022-10-22T06:53:39;14.30;99.90
21646;DHT22;10984;45.712;4.800;2022-10-22T06:56:16;14.30;99.90
21646;DHT22;10984;45.712;4.800;2022-10-22T06:58:45;14.40;99.90
21646;DHT22;10984;45.712;4.800;2022-10-22T07:01:12;14.50;99.90
21646;DHT22;10984;45.712;4.800;2022-10-22T07:03:39;14.60;99.90
21646;DHT22;10984;45.712;4.800;2022-10-22T07:06:07;14.70;99.90
21646;DHT22;10984;45.712;4.800;2022-10-22T07:08:34;14.80;99.90
21646;DHT22;10984;45.712;4.800;2022-10-22T07:14:03;14.90;99.90
21646;DHT22;10984;45.712;4.800;2022-10-22T07:16:28;15.00;99.90
21646;DHT22;10984;45.712;4.800;2022-10-22T07:18:54;15.10;99.90
21646;DHT22;10984;45.712;4.800;2022-10-22T07:21:20;15.20;99.90
21646;DHT22;10984;45.712;4.800;2022-10-22T07:23:46;15.30;99.90
21646;DHT22;10984;45.712;4.800;2022-10-22T07:26:13;15.50;99.90
21646;DHT22;10984;45.712;4.800;2022-10-22T07:28:40;15.50;99.90
21646;DHT22;10984;45.712;4.800;2022-10-22T07:31:10;15.70;99.90
21646;DHT22;10984;45.712;4.800;2022-10-22T07:33:36;15.80;99.90
21646;DHT22;10984;45.712;4.800;2022-10-22T07:36:04;16.00;99.90
21646;DHT22;10984;45.712;4.800;2022-10-22T07:38:31;16.10;99.90
21646;DHT22;10984;45.712;4.800;2022-10-22T07:40:57;16.20;99.90
21646;DHT22;10984;45.712;4.800;2022-10-22T07:43:23;16.30;99.90
21646;DHT22;10984;45.712;4.800;2022-10-22T07:45:49;16.40;99.90
21646;DHT22;10984;45.712;4.800;2022-10-22T07:48:15;16.40;99.90
21646;DHT22;10984;45.712;4.800;2022-10-22T07:50:41;16.40;99.90
21646;DHT22;10984;45.712;4.800;2022-10-22T07:53:06;16.50;99.90
21646;DHT22;10984;45.712;4.800;2022-10-22T07:55:33;16.60;99.90
21646;DHT22;10984;45.712;4.800;2022-10-22T07:57:59;16.80;99.90
21646;DHT22;10984;45.712;4.800;2022-10-22T08:00:25;16.80;99.90
21646;DHT22;10984;45.712;4.800;2022-10-22T08:02:51;16.90;99.90
21646;DHT22;10984;45.712;4.800;2022-10-22T08:05:17;16.90;99.90
21646;DHT22;10984;45.712;4.800;2022-10-22T08:07:42;16.90;99.90
21646;DHT22;10984;45.712;4.800;2022-10-22T08:10:09;16.90;99.90
21646;DHT22;10984;45.712;4.800;2022-10-22T08:12:36;16.90;99.90
21646;DHT22;10984;45.712;4.800;2022-10-22T08:15:02;17.00;99.90
21646;DHT22;10984;45.712;4.800;2022-10-22T08:17:28;17.00;99.90
21646;DHT22;10984;45.712;4.800;2022-10-22T08:19:53;17.10;99.90
21646;DHT22;10984;45.712;4.800;2022-10-22T08:22:19;17.20;99.90
21646;DHT22;10984;45.712;4.800;2022-10-22T08:24:45;17.30;99.90
21646;DHT22;10984;45.712;4.800;2022-10-22T08:27:11;17.40;99.90
21646;DHT22;10984;45.712;4.800;2022-10-22T08:29:37;17.50;99.90
21646;DHT22;10984;45.712;4.800;2022-10-22T08:32:03;17.50;99.90
21646;DHT22;10984;45.712;4.800;2022-10-22T08:34:29;17.50;99.90
21646;DHT22;10984;45.712;4.800;2022-10-22T08:36:55;17.60;99.90
21646;DHT22;10984;45.712;4.800;2022-10-22T08:39:21;17.70;99.90
21646;DHT22;10984;45.712;4.800;2022-10-22T08:50:45;18.00;99.90
21646;DHT22;10984;45.712;4.800;2022-10-22T08:53:15;18.00;99.90
21646;DHT22;10984;45.712;4.800;2022-10-22T08:55:42;18.00;99.90
21646;DHT22;10984;45.712;4.800;2022-10-22T09:06:59;18.00;99.90
21646;DHT22;10984;45.712;4.800;2022-10-22T09:09:28;18.10;99.90
21646;DHT22;10984;45.712;4.800;2022-10-22T09:11:57;18.10;99.90
21646;DHT22;10984;45.712;4.800;2022-10-22T09:14:24;18.20;99.90
21646;DHT22;10984;45.712;4.800;2022-10-22T09:25:25;18.40;99.90
21646;DHT22;10984;45.712;4.800;2022-10-22T09:27:51;18.50;99.90
21646;DHT22;10984;45.712;4.800;2022-10-22T09:30:23;18.50;99.90
21646;DHT22;10984;45.712;4.800;2022-10-22T09:32:55;18.50;99.90
21646;DHT22;10984;45.712;4.800;2022-10-22T09:35:24;18.60;99.90
21646;DHT22;10984;45.712;4.800;2022-10-22T09:37:54;18.70;99.90
21646;DHT22;10984;45.712;4.800;2022-10-22T09:40:20;18.70;99.90
21646;DHT22;10984;45.712;4.800;2022-10-22T09:42:46;18.70;99.90
21646;DHT22;10984;45.712;4.800;2022-10-22T09:45:30;18.70;99.90
21646;DHT22;10984;45.712;4.800;2022-10-22T09:59:25;19.10;99.90
21646;DHT22;10984;45.712;4.800;2022-10-22T10:02:00;19.20;99.90
21646;DHT22;10984;45.712;4.800;2022-10-22T10:04:26;19.30;99.90
21646;DHT22;10984;45.712;4.800;2022-10-22T10:06:54;19.30;99.90
21646;DHT22;10984;45.712;4.800;2022-10-22T10:09:23;19.30;99.90
21646;DHT22;10984;45.712;4.800;2022-10-22T10:49:18;19.50;99.90
21646;DHT22;10984;45.712;4.800;2022-10-22T11:00:42;19.60;99.90
21646;DHT22;10984;45.712;4.800;2022-10-22T11:06:15;19.80;99.90
21646;DHT22;10984;45.712;4.800;2022-10-22T11:08:46;19.80;99.90
21646;DHT22;10984;45.712;4.800;2022-10-22T11:29:11;20.10;99.90
21646;DHT22;10984;45.712;4.800;2022-10-22T11:31:37;20.10;99.90
21646;DHT22;10984;45.712;4.800;2022-10-22T11:36:48;20.10;99.90
21646;DHT22;10984;45.712;4.800;2022-10-22T11:39:35;20.10;99.90
21646;DHT22;10984;45.712;4.800;2022-10-22T11:42:10;20.10;99.90
21646;DHT22;10984;45.712;4.800;2022-10-22T11:51:01;20.20;99.90
21646;DHT22;10984;45.712;4.800;2022-10-22T11:53:46;20.10;99.90
21646;DHT22;10984;45.712;4.800;2022-10-22T11:56:38;20.20;99.90
21646;DHT22;10984;45.712;4.800;2022-10-22T11:59:36;20.30;99.90
21646;DHT22;10984;45.712;4.800;2022-10-22T12:01:54;20.30;99.90
21646;DHT22;10984;45.712;4.800;2022-10-22T12:04:22;20.30;99.90
21646;DHT22;10984;45.712;4.800;2022-10-22T12:07:33;20.40;99.90
21646;DHT22;10984;45.712;4.800;2022-10-22T12:09:59;20.40;99.90
21646;DHT22;10984;45.712;4.800;2022-10-22T12:12:35;20.50;99.90
21646;DHT22;10984;45.712;4.800;2022-10-22T12:18:05;20.50;99.90
21646;DHT22;10984;45.712;4.800;2022-10-22T12:20:31;20.60;99.90
21646;DHT22;10984;45.712;4.800;2022-10-22T12:22:57;20.50;99.90
21646;DHT22;10984;45.712;4.800;2022-10-22T12:25:29;20.60;99.90
21646;DHT22;10984;45.712;4.800;2022-10-22T12:27:58;20.60;99.90
21646;DHT22;10984;45.712;4.800;2022-10-22T12:30:44;20.60;99.90
21646;DHT22;10984;45.712;4.800;2022-10-22T12:33:19;20.70;99.90
21646;DHT22;10984;45.712;4.800;2022-10-22T12:35:46;20.70;99.90
21646;DHT22;10984;45.712;4.800;2022-10-22T12:38:14;20.70;99.90
21646;DHT22;10984;45.712;4.800;2022-10-22T12:40:40;20.80;99.90
21646;DHT22;10984;45.712;4.800;2022-10-22T12:43:26;20.80;99.90
21646;DHT22;10984;45.712;4.800;2022-10-22T12:45:52;20.80;99.90
21646;DHT22;10984;45.712;4.800;2022-10-22T12:48:23;20.80;99.90
21646;DHT22;10984;45.712;4.800;2022-10-22T12:51:08;20.80;99.90
21646;DHT22;10984;45.712;4.800;2022-10-22T12:53:43;20.90;99.90
21646;DHT22;10984;45.712;4.800;2022-10-22T12:56:12;20.80;99.90
21646;DHT22;10984;45.712;4.800;2022-10-22T13:01:33;20.90;99.90
21646;DHT22;10984;45.712;4.800;2022-10-22T13:06:50;20.90;99.90
21646;DHT22;10984;45.712;4.800;2022-10-22T13:09:19;20.90;99.90
21646;DHT22;10984;45.712;4.800;2022-10-22T13:12:04;20.90;99.90
21646;DHT22;10984;45.712;4.800;2022-10-22T13:14:32;20.90;99.90
21646;DHT22;10984;45.712;4.800;2022-10-22T13:22:50;20.90;99.90
21646;DHT22;10984;45.712;4.800;2022-10-22T13:28:11;20.90;99.90
21646;DHT22;10984;45.712;4.800;2022-10-22T13:30:51;21.00;99.90
21646;DHT22;10984;45.712;4.800;2022-10-22T13:33:37;21.00;99.90
21646;DHT22;10984;45.712;4.800;2022-10-22T13:36:03;21.00;99.90
21646;DHT22;10984;45.712;4.800;2022-10-22T13:38:29;21.20;99.90
21646;DHT22;10984;45.712;4.800;2022-10-22T13:40:55;21.10;99.90
21646;DHT22;10984;45.712;4.800;2022-10-22T13:43:22;21.10;99.90
21646;DHT22;10984;45.712;4.800;2022-10-22T13:45:53;21.10;99.90
21646;DHT22;10984;45.712;4.800;2022-10-22T13:48:20;21.10;99.90
21646;DHT22;10984;45.712;4.800;2022-10-22T13:50:50;21.10;99.90
21646;DHT22;10984;45.712;4.800;2022-10-22T13:53:35;21.10;99.90
21646;DHT22;10984;45.712;4.800;2022-10-22T13:56:01;21.10;99.90
21646;DHT22;10984;45.712;4.800;2022-10-22T13:58:26;21.10;99.90
21646;DHT22;10984;45.712;4.800;2022-10-22T14:03:57;21.10;99.90
21646;DHT22;10984;45.712;4.800;2022-10-22T14:06:25;21.10;99.90
21646;DHT22;10984;45.712;4.800;2022-10-22T14:09:12;21.10;99.90
21646;DHT22;10984;45.712;4.800;2022-10-22T14:11:38;21.00;99.90
21646;DHT22;10984;45.712;4.800;2022-10-22T14:14:04;20.90;99.90
21646;DHT22;10984;45.712;4.800;2022-10-22T14:16:33;20.90;99.90
21646;DHT22;10984;45.712;4.800;2022-10-22T14:19:00;20.90;99.90
21646;DHT22;10984;45.712;4.800;2022-10-22T14:21:29;20.80;99.90
21646;DHT22;10984;45.712;4.800;2022-10-22T14:23:57;20.80;99.90
21646;DHT22;10984;45.712;4.800;2022-10-22T14:26:26;20.80;99.90
21646;DHT22;10984;45.712;4.800;2022-10-22T14:28:56;20.80;99.90
21646;DHT22;10984;45.712;4.800;2022-10-22T14:31:23;20.70;99.90
21646;DHT22;10984;45.712;4.800;2022-10-22T14:33:48;20.70;99.90
21646;DHT22;10984;45.712;4.800;2022-10-22T14:36:16;20.70;99.90
21646;DHT22;10984;45.712;4.800;2022-10-22T14:38:43;20.70;99.90
21646;DHT22;10984;45.712;4.800;2022-10-22T14:44:01;20.70;99.90
21646;DHT22;10984;45.712;4.800;2022-10-22T14:46:27;20.70;99.90
21646;DHT22;10984;45.712;4.800;2022-10-22T14:48:52;20.60;99.90
21646;DHT22;10984;45.712;4.800;2022-10-22T14:51:21;20.60;99.90
21646;DHT22;10984;45.712;4.800;2022-10-22T14:53:48;20.50;99.90
21646;DHT22;10984;45.712;4.800;2022-10-22T14:56:16;20.50;99.90
21646;DHT22;10984;45.712;4.800;2022-10-22T14:58:42;20.50;99.90
21646;DHT22;10984;45.712;4.800;2022-10-22T15:01:08;20.40;99.90
21646;DHT22;10984;45.712;4.800;2022-10-22T15:03:34;20.30;99.90
21646;DHT22;10984;45.712;4.800;2022-10-22T15:06:00;20.30;99.90
21646;DHT22;10984;45.712;4.800;2022-10-22T15:08:26;20.30;99.90
21646;DHT22;10984;45.712;4.800;2022-10-22T15:11:11;20.20;99.90
21646;DHT22;10984;45.712;4.800;2022-10-22T15:13:37;20.20;99.90
21646;DHT22;10984;45.712;4.800;2022-10-22T15:16:22;20.10;99.90
21646;DHT22;10984;45.712;4.800;2022-10-22T15:18:48;20.10;99.90
21646;DHT22;10984;45.712;4.800;2022-10-22T15:21:16;20.00;99.90
21646;DHT22;10984;45.712;4.800;2022-10-22T15:23:42;19.90;99.90
21646;DHT22;10984;45.712;4.800;2022-10-22T15:26:09;19.80;99.90
21646;DHT22;10984;45.712;4.800;2022-10-22T15:28:36;19.80;99.90
21646;DHT22;10984;45.712;4.800;2022-10-22T15:31:01;19.80;99.90
21646;DHT22;10984;45.712;4.800;2022-10-22T15:33:28;19.70;99.90
21646;DHT22;10984;45.712;4.800;2022-10-22T15:35:55;19.70;99.90
21646;DHT22;10984;45.712;4.800;2022-10-22T15:38:22;19.60;99.90
21646;DHT22;10984;45.712;4.800;2022-10-22T15:40:59;19.60;99.90
21646;DHT22;10984;45.712;4.800;2022-10-22T15:43:26;19.60;99.90
21646;DHT22;10984;45.712;4.800;2022-10-22T15:46:08;19.60;99.90
21646;DHT22;10984;45.712;4.800;2022-10-22T15:48:34;19.50;99.90
21646;DHT22;10984;45.712;4.800;2022-10-22T15:51:00;19.50;99.90
21646;DHT22;10984;45.712;4.800;2022-10-22T15:53:25;19.50;99.90
21646;DHT22;10984;45.712;4.800;2022-10-22T15:55:51;19.50;99.90
21646;DHT22;10984;45.712;4.800;2022-10-22T15:58:19;19.50;99.90
21646;DHT22;10984;45.712;4.800;2022-10-22T16:00:45;19.60;99.90
21646;DHT22;10984;45.712;4.800;2022-10-22T16:03:10;19.50;99.90
21646;DHT22;10984;45.712;4.800;2022-10-22T16:05:36;19.40;99.90
21646;DHT22;10984;45.712;4.800;2022-10-22T16:08:02;19.40;99.90
21646;DHT22;10984;45.712;4.800;2022-10-22T16:10:27;19.40;99.90
21646;DHT22;10984;45.712;4.800;2022-10-22T16:12:55;19.30;99.90
21646;DHT22;10984;45.712;4.800;2022-10-22T16:15:20;19.30;99.90
21646;DHT22;10984;45.712;4.800;2022-10-22T16:17:46;19.20;99.90
21646;DHT22;10984;45.712;4.800;2022-10-22T16:20:12;19.20;99.90
21646;DHT22;10984;45.712;4.800;2022-10-22T16:22:37;19.10;99.90
21646;DHT22;10984;45.712;4.800;2022-10-22T16:25:03;19.00;99.90
21646;DHT22;10984;45.712;4.800;2022-10-22T16:27:29;19.00;99.90
21646;DHT22;10984;45.712;4.800;2022-10-22T16:29:54;18.90;99.90
21646;DHT22;10984;45.712;4.800;2022-10-22T16:32:20;18.80;99.90
21646;DHT22;10984;45.712;4.800;2022-10-22T16:34:46;18.70;99.90
21646;DHT22;10984;45.712;4.800;2022-10-22T16:37:11;18.60;99.90
21646;DHT22;10984;45.712;4.800;2022-10-22T16:39:37;18.60;99.90
21646;DHT22;10984;45.712;4.800;2022-10-22T16:42:03;18.50;99.90
21646;DHT22;10984;45.712;4.800;2022-10-22T16:44:28;18.40;99.90
21646;DHT22;10984;45.712;4.800;2022-10-22T16:46:54;18.20;99.90
21646;DHT22;10984;45.712;4.800;2022-10-22T16:49:20;18.10;99.90
21646;DHT22;10984;45.712;4.800;2022-10-22T16:51:45;18.00;99.90
21646;DHT22;10984;45.712;4.800;2022-10-22T16:54:11;17.90;99.90
21646;DHT22;10984;45.712;4.800;2022-10-22T16:56:38;17.90;99.90
21646;DHT22;10984;45.712;4.800;2022-10-22T16:59:05;17.80;99.90
21646;DHT22;10984;45.712;4.800;2022-10-22T17:01:31;17.70;99.90
21646;DHT22;10984;45.712;4.800;2022-10-22T17:04:15;17.70;99.90
21646;DHT22;10984;45.712;4.800;2022-10-22T17:07:00;17.60;99.90
21646;DHT22;10984;45.712;4.800;2022-10-22T17:09:25;17.60;99.90
21646;DHT22;10984;45.712;4.800;2022-10-22T17:11:51;17.50;99.90
21646;DHT22;10984;45.712;4.800;2022-10-22T17:14:17;17.50;99.90
21646;DHT22;10984;45.712;4.800;2022-10-22T17:16:42;17.40;99.90
21646;DHT22;10984;45.712;4.800;2022-10-22T17:19:11;17.40;99.90
21646;DHT22;10984;45.712;4.800;2022-10-22T17:21:38;17.40;99.90
21646;DHT22;10984;45.712;4.800;2022-10-22T17:24:04;17.40;99.90
21646;DHT22;10984;45.712;4.800;2022-10-22T17:26:30;17.30;99.90
21646;DHT22;10984;45.712;4.800;2022-10-22T17:28:57;17.30;99.90
21646;DHT22;10984;45.712;4.800;2022-10-22T17:34:14;17.20;99.90
21646;DHT22;10984;45.712;4.800;2022-10-22T17:36:41;17.20;99.90
21646;DHT22;10984;45.712;4.800;2022-10-22T17:39:07;17.20;99.90
21646;DHT22;10984;45.712;4.800;2022-10-22T17:41:35;17.20;99.90
21646;DHT22;10984;45.712;4.800;2022-10-22T17:44:02;17.10;99.90
21646;DHT22;10984;45.712;4.800;2022-10-22T17:46:30;17.10;99.90
21646;DHT22;10984;45.712;4.800;2022-10-22T17:48:58;17.10;99.90
21646;DHT22;10984;45.712;4.800;2022-10-22T17:51:26;17.10;99.90
21646;DHT22;10984;45.712;4.800;2022-10-22T17:53:53;17.00;99.90
21646;DHT22;10984;45.712;4.800;2022-10-22T17:56:21;17.00;99.90
21646;DHT22;10984;45.712;4.800;2022-10-22T17:58:47;17.00;99.90
21646;DHT22;10984;45.712;4.800;2022-10-22T18:01:33;17.00;99.90
21646;DHT22;10984;45.712;4.800;2022-10-22T18:04:02;17.00;99.90
21646;DHT22;10984;45.712;4.800;2022-10-22T18:06:28;17.00;99.90
21646;DHT22;10984;45.712;4.800;2022-10-22T18:08:54;17.00;99.90
21646;DHT22;10984;45.712;4.800;2022-10-22T18:11:22;17.00;99.90
21646;DHT22;10984;45.712;4.800;2022-10-22T18:13:49;16.90;99.90
21646;DHT22;10984;45.712;4.800;2022-10-22T18:16:16;17.00;99.90
21646;DHT22;10984;45.712;4.800;2022-10-22T18:18:45;16.90;99.90
21646;DHT22;10984;45.712;4.800;2022-10-22T18:21:12;17.00;99.90
21646;DHT22;10984;45.712;4.800;2022-10-22T18:23:39;16.90;99.90
21646;DHT22;10984;45.712;4.800;2022-10-22T18:26:04;16.90;99.90
21646;DHT22;10984;45.712;4.800;2022-10-22T18:28:30;16.90;99.90
21646;DHT22;10984;45.712;4.800;2022-10-22T18:30:56;16.90;99.90
21646;DHT22;10984;45.712;4.800;2022-10-22T18:33:21;16.80;99.90
21646;DHT22;10984;45.712;4.800;2022-10-22T18:35:49;16.80;99.90
21646;DHT22;10984;45.712;4.800;2022-10-22T18:38:16;16.80;99.90
21646;DHT22;10984;45.712;4.800;2022-10-22T18:40:47;16.80;99.90
21646;DHT22;10984;45.712;4.800;2022-10-22T18:43:15;16.80;99.90
21646;DHT22;10984;45.712;4.800;2022-10-22T18:45:59;16.80;99.90
21646;DHT22;10984;45.712;4.800;2022-10-22T18:48:25;16.80;99.90
21646;DHT22;10984;45.712;4.800;2022-10-22T18:51:09;16.70;99.90
21646;DHT22;10984;45.712;4.800;2022-10-22T18:53:36;16.70;99.90